Time;durP1;ratioP1;P1;durP2;ratioP2;P2;SDS_P1;SDS_P2;PMS_P1;PMS_P2;Temp;Humidity;BMP_temperature;BMP_pressure;BME280_temperature;BME280_humidity;BME280_pressure;Samples;Min_cycle;Max_cycle;Signal;HPM_P1;HPM_P2
2022/01/17 00:01:05;;;;;;;54.75;22.98;;;;;;;-2.46;81.82;95207.72;5154215;27;20283;-78
2022/01/17 00:03:32;;;;;;;62.67;23.35;;;;;;;-2.35;81.63;95203.47;5154345;27;20253;-78
2022/01/17 00:06:03;;;;;;;56.03;21.42;;;;;;;-2.48;82.01;95178.00;5153800;27;20204;-79
2022/01/17 00:08:33;;;;;;;67.03;20.83;;;;;;;-2.70;80.59;95155.75;5153630;27;20775;-78
2022/01/17 00:11:01;;;;;;;52.45;19.33;;;;;;;-2.48;81.22;95178.00;5153903;27;20759;-78
2022/01/17 00:13:29;;;;;;;52.65;20.98;;;;;;;-2.42;81.49;95179.69;5154001;27;20230;-78
2022/01/17 00:16:04;;;;;;;48.60;19.55;;;;;;;-2.43;81.92;95212.56;5154250;27;20379;-78
2022/01/17 00:19:04;;;;;;;52.17;21.45;;;;;;;-2.61;82.33;95168.44;5154717;27;20231;-78
2022/01/17 00:21:31;;;;;;;44.35;21.15;;;;;;;-2.29;82.11;95208.63;5154206;27;20787;-79
2022/01/17 00:24:01;;;;;;;52.20;20.90;;;;;;;-2.27;81.03;95206.56;5154880;27;20701;-78
2022/01/17 00:26:28;;;;;;;42.53;16.15;;;;;;;-2.35;81.16;95209.56;5154479;27;20750;-78
2022/01/17 00:28:55;;;;;;;40.33;19.75;;;;;;;-2.54;80.52;95176.25;5155091;27;20682;-78
2022/01/17 00:31:22;;;;;;;45.85;18.88;;;;;;;-2.27;80.99;95209.22;5141017;27;20295;-79
2022/01/17 00:33:49;;;;;;;43.72;18.55;;;;;;;-2.42;81.04;95219.47;5154482;27;20241;-78
2022/01/17 00:36:16;;;;;;;44.13;18.48;;;;;;;-2.58;81.27;95189.16;5153944;27;20566;-78
2022/01/17 00:38:45;;;;;;;38.97;18.15;;;;;;;-2.30;81.75;95222.94;5154176;27;20220;-78
2022/01/17 00:41:12;;;;;;;42.45;15.82;;;;;;;-2.28;81.78;95217.41;5154456;27;20708;-78
2022/01/17 00:43:39;;;;;;;37.60;18.20;;;;;;;-2.45;80.86;95204.03;5154871;27;20203;-77
2022/01/17 00:46:07;;;;;;;40.80;16.92;;;;;;;-2.35;80.64;95211.41;5154671;27;20603;-77
2022/01/17 00:48:33;;;;;;;42.20;17.95;;;;;;;-2.37;80.31;95219.59;5154258;27;20207;-78
2022/01/17 00:51:00;;;;;;;38.88;17.27;;;;;;;-2.46;79.66;95220.19;5153840;27;20557;-78
2022/01/17 00:53:27;;;;;;;36.42;16.98;;;;;;;-2.55;80.62;95209.13;5154337;27;20220;-79
2022/01/17 00:55:56;;;;;;;36.83;16.58;;;;;;;-2.71;79.59;95189.41;5153845;27;20220;-78
2022/01/17 00:58:23;;;;;;;31.23;14.20;;;;;;;-2.88;80.57;95178.72;5154079;27;20197;-79
2022/01/17 01:00:51;;;;;;;42.33;13.82;;;;;;;-2.58;80.85;95209.56;5153910;27;20207;-78
2022/01/17 01:03:25;;;;;;;31.02;14.20;;;;;;;-2.75;80.66;95198.06;5153587;27;20319;-78
2022/01/17 01:05:52;;;;;;;32.75;13.35;;;;;;;-2.55;79.85;95190.56;5153161;27;20239;-78
2022/01/17 01:08:19;;;;;;;27.58;13.55;;;;;;;-2.62;81.26;95192.53;5152955;27;20223;-78
2022/01/17 01:10:45;;;;;;;31.63;14.18;;;;;;;-2.64;81.22;95194.59;5153992;27;20248;-78
2022/01/17 01:13:16;;;;;;;33.85;14.45;;;;;;;-2.61;80.47;95189.66;5154279;27;20204;-78
2022/01/17 01:15:58;;;;;;;28.35;11.95;;;;;;;-2.77;81.26;95186.88;5153497;27;20236;-78
2022/01/17 01:18:38;;;;;;;34.45;13.63;;;;;;;-2.66;83.28;95191.38;5153178;27;20222;-77
2022/01/17 01:29:26;;;;;;;28.73;12.52;;;;;;;-2.85;81.78;95166.81;5153356;27;20196;-78
2022/01/17 01:31:58;;;;;;;33.58;14.45;;;;;;;-3.03;81.52;95170.41;5153358;27;20216;-77
2022/01/17 01:34:33;;;;;;;33.72;14.48;;;;;;;-3.17;82.65;95158.41;5153171;27;20193;-77
2022/01/17 01:37:02;;;;;;;46.58;15.88;;;;;;;-3.05;83.74;95176.97;5152557;27;20668;-78
2022/01/17 01:39:32;;;;;;;34.83;14.25;;;;;;;-2.93;83.36;95185.72;5152895;27;20231;-78
2022/01/17 01:41:59;;;;;;;32.92;13.68;;;;;;;-3.00;83.56;95169.13;5153362;27;20196;-78
2022/01/17 01:44:29;;;;;;;46.70;20.25;;;;;;;-3.12;84.28;95166.47;5152803;27;20319;-78
2022/01/17 01:46:57;;;;;;;34.42;14.07;;;;;;;-3.34;83.63;95165.41;5153442;27;20559;-78
2022/01/17 01:49:36;;;;;;;;;;;;;;;;;;;;;
2022/01/17 01:52:05;;;;;;;37.25;15.02;;;;;;;-3.11;85.44;95170.72;5147694;27;20237;-77
2022/01/17 01:54:32;;;;;;;39.22;15.90;;;;;;;-3.19;83.45;95144.59;5152937;27;20192;-80
2022/01/17 01:57:00;;;;;;;36.50;15.00;;;;;;;-3.07;83.56;95131.34;5151912;27;20284;-79
2022/01/17 01:59:29;;;;;;;44.28;18.95;;;;;;;-2.77;82.78;95169.13;5152849;27;20314;-77
2022/01/17 02:01:56;;;;;;;34.42;15.18;;;;;;;-2.91;83.30;95131.47;5152734;27;20192;-78
2022/01/17 02:04:23;;;;;;;40.88;17.25;;;;;;;-2.70;82.78;95150.44;5152733;27;20203;-78
2022/01/17 02:06:50;;;;;;;32.30;13.90;;;;;;;-2.62;81.45;95152.75;5152054;27;20662;-78
2022/01/17 02:09:18;;;;;;;36.22;13.60;;;;;;;-2.62;80.71;95135.00;5152628;27;20220;-77
2022/01/17 02:11:45;;;;;;;41.97;15.73;;;;;;;-2.93;80.35;95117.63;5152792;27;20325;-77
2022/01/17 02:14:13;;;;;;;31.48;13.45;;;;;;;-2.69;80.45;95146.75;5152981;27;20277;-77
2022/01/17 02:16:44;;;;;;;36.63;15.55;;;;;;;-2.73;81.13;95135.81;5152292;27;20251;-77
2022/01/17 02:19:12;;;;;;;33.20;14.30;;;;;;;-2.73;80.42;95117.25;5152977;27;20635;-79
2022/01/17 02:21:46;;;;;;;31.70;12.43;;;;;;;-2.57;80.67;95126.34;5152619;27;20689;-78
2022/01/17 02:24:16;;;;;;;29.48;13.13;;;;;;;-2.56;79.64;95123.47;5152549;27;20216;-78
2022/01/17 02:27:02;;;;;;;;;;;;;;;;;;;;;
2022/01/17 02:29:30;;;;;;;27.52;12.60;;;;;;;-2.47;79.04;95118.63;5151835;27;20233;-77
2022/01/17 02:31:57;;;;;;;26.25;11.45;;;;;;;-2.31;79.39;95128.47;5152867;27;20658;-78
2022/01/17 02:34:24;;;;;;;31.13;13.07;;;;;;;-2.12;78.03;95150.34;5152542;27;20288;-78
2022/01/17 02:36:53;;;;;;;33.55;12.18;;;;;;;-2.56;78.08;95104.91;5152149;27;20204;-76
2022/01/17 02:39:20;;;;;;;26.25;12.63;;;;;;;-2.42;78.08;95131.97;5152384;27;20240;-78
2022/01/17 02:41:49;;;;;;;24.05;11.25;;;;;;;-2.49;78.23;95160.47;5152753;27;20662;-78
2022/01/17 02:44:16;;;;;;;30.00;13.15;;;;;;;-2.59;78.78;95137.19;5152495;27;20204;-78
2022/01/17 02:46:44;;;;;;;29.08;12.32;;;;;;;-2.81;78.81;95135.38;5152202;27;20687;-78
2022/01/17 02:49:11;;;;;;;33.10;13.98;;;;;;;-2.72;79.68;95137.41;5152858;27;20231;-78
2022/01/17 02:51:38;;;;;;;21.70;11.20;;;;;;;-2.79;79.18;95128.81;5152471;27;20220;-78
2022/01/17 02:54:07;;;;;;;37.72;12.55;;;;;;;-3.02;80.91;95145.53;5152264;27;20224;-78
2022/01/17 02:56:34;;;;;;;33.08;13.65;;;;;;;-3.07;80.49;95137.44;5152524;27;20434;-79
2022/01/17 02:59:02;;;;;;;25.65;11.55;;;;;;;-3.04;80.95;95131.69;5143292;27;20203;-77
2022/01/17 03:01:30;;;;;;;28.00;12.23;;;;;;;-3.02;80.63;95139.41;5156089;27;21036;-78
2022/01/17 03:03:58;;;;;;;25.90;10.88;;;;;;;-3.41;81.32;95109.88;5156551;27;20319;-78
2022/01/17 03:06:26;;;;;;;26.70;11.27;;;;;;;-2.92;81.74;95153.69;5156104;27;20252;-78
2022/01/17 03:08:54;;;;;;;23.30;10.60;;;;;;;-3.04;81.13;95134.34;5156123;27;20229;-77
2022/01/17 03:11:24;;;;;;;25.17;11.00;;;;;;;-2.97;79.62;95137.66;5156033;27;20733;-78
2022/01/17 03:13:52;;;;;;;34.90;12.73;;;;;;;-3.13;79.10;95132.25;5155745;27;20200;-79
2022/01/17 03:16:22;;;;;;;30.13;12.45;;;;;;;-3.39;79.74;95091.13;5155688;27;20627;-77
2022/01/17 03:18:51;;;;;;;28.42;10.88;;;;;;;-3.25;80.77;95113.72;5156697;27;20232;-77
2022/01/17 03:21:20;;;;;;;26.08;12.40;;;;;;;-3.30;81.60;95110.97;5155928;27;20199;-78
2022/01/17 03:23:49;;;;;;;28.15;12.32;;;;;;;-2.97;80.70;95132.38;5156027;27;20212;-77
2022/01/17 03:26:16;;;;;;;34.75;12.60;;;;;;;-3.13;81.09;95133.06;5156053;27;20200;-78
2022/01/17 03:28:45;;;;;;;38.45;13.00;;;;;;;-3.00;81.63;95127.53;5155768;27;20212;-78
2022/01/17 03:31:12;;;;;;;26.35;10.32;;;;;;;-2.96;80.56;95133.19;5155114;27;20197;-78
2022/01/17 03:33:40;;;;;;;28.48;12.27;;;;;;;-3.18;81.21;95146.19;5155580;27;20206;-76
2022/01/17 03:36:07;;;;;;;22.75;11.43;;;;;;;-3.25;81.91;95140.19;5155653;27;20208;-78
2022/01/17 03:38:35;;;;;;;25.65;11.80;;;;;;;-3.11;82.70;95138.94;5155474;27;20204;-77
2022/01/17 03:41:04;;;;;;;28.25;12.25;;;;;;;-3.12;82.38;95134.66;5154631;27;20689;-77
2022/01/17 03:43:31;;;;;;;26.38;12.70;;;;;;;-2.86;81.84;95150.09;5155027;27;20204;-77
2022/01/17 03:46:00;;;;;;;31.92;13.32;;;;;;;-2.86;81.74;95152.75;5155346;27;20203;-76
2022/01/17 03:48:28;;;;;;;32.78;14.38;;;;;;;-2.98;81.49;95157.25;5155373;27;20196;-77
2022/01/17 03:50:58;;;;;;;27.25;13.55;;;;;;;-3.14;82.35;95171.19;5155222;27;20212;-77
2022/01/17 03:53:27;;;;;;;37.38;14.20;;;;;;;-2.95;82.21;95167.41;5155502;27;20240;-76
2022/01/17 03:55:55;;;;;;;27.48;12.77;;;;;;;-3.05;81.23;95159.22;5154368;27;20220;-78
2022/01/17 03:58:25;;;;;;;30.58;13.38;;;;;;;-3.10;81.69;95161.75;5154353;27;20200;-78
2022/01/17 04:00:53;;;;;;;31.17;12.18;;;;;;;-3.07;79.89;95156.00;5154248;27;20743;-77
2022/01/17 04:03:22;;;;;;;26.58;11.98;;;;;;;-3.07;79.61;95153.34;5153680;27;20200;-78
2022/01/17 04:05:49;;;;;;;31.98;14.25;;;;;;;-3.12;80.66;95161.16;5151565;27;20407;-77
2022/01/17 04:08:20;;;;;;;32.63;13.95;;;;;;;-3.53;81.77;95163.84;5153120;27;20200;-77
2022/01/17 04:10:48;;;;;;;30.05;13.23;;;;;;;-3.46;82.10;95160.09;5147597;27;20234;-78
2022/01/17 04:13:15;;;;;;;28.00;11.50;;;;;;;-3.14;82.36;95167.75;5153592;27;20216;-78
2022/01/17 04:15:43;;;;;;;27.95;11.85;;;;;;;-3.41;82.51;95140.84;5153072;27;20250;-78
2022/01/17 04:18:11;;;;;;;30.15;12.75;;;;;;;-3.45;80.89;95147.66;5153394;27;20218;-77
2022/01/17 04:20:41;;;;;;;27.67;11.38;;;;;;;-3.58;80.98;95183.91;5154589;27;20693;-78
2022/01/17 04:23:10;;;;;;;29.67;12.55;;;;;;;-3.44;81.63;95167.81;5154412;27;20216;-77
2022/01/17 04:25:40;;;;;;;33.88;14.80;;;;;;;-3.49;81.12;95163.19;5154592;27;20210;-76
2022/01/17 04:28:09;;;;;;;32.88;12.82;;;;;;;-3.68;80.58;95167.72;5141193;27;20812;-76
2022/01/17 04:30:37;;;;;;;42.83;16.38;;;;;;;-3.63;81.62;95165.22;5154569;27;20197;-78
2022/01/17 04:33:04;;;;;;;28.15;12.32;;;;;;;-3.44;81.47;95159.88;5153903;27;20200;-77
2022/01/17 04:35:33;;;;;;;28.85;12.38;;;;;;;-3.28;81.25;95156.56;5154809;27;20211;-78
2022/01/17 04:38:08;;;;;;;34.97;13.35;;;;;;;-3.28;80.99;95160.00;5154606;27;20220;-76
2022/01/17 04:40:37;;;;;;;34.22;12.40;;;;;;;-3.20;80.33;95164.16;5154111;27;20219;-77
2022/01/17 04:43:13;;;;;;;23.90;9.68;;;;;;;-3.18;80.26;95151.50;5154938;27;20196;-76
2022/01/17 04:45:40;;;;;;;24.73;10.98;;;;;;;-3.43;80.56;95158.84;5154685;27;20199;-77
2022/01/17 04:48:07;;;;;;;26.58;11.65;;;;;;;-3.44;81.96;95157.22;5154576;27;20235;-76
2022/01/17 04:50:34;;;;;;;25.13;12.53;;;;;;;-3.31;82.32;95155.16;5154124;27;20417;-76
2022/01/17 04:53:03;;;;;;;26.45;9.73;;;;;;;-3.21;81.20;95146.66;5154726;27;20288;-75
2022/01/17 04:55:30;;;;;;;26.88;11.52;;;;;;;-3.18;81.73;95145.41;5154269;27;20286;-75
2022/01/17 04:57:57;;;;;;;27.40;12.13;;;;;;;-3.16;81.74;95141.50;5154135;27;20215;-75
2022/01/17 05:00:26;;;;;;;28.63;9.88;;;;;;;-3.39;82.11;95136.94;5154005;27;20224;-75
2022/01/17 05:02:53;;;;;;;22.88;9.68;;;;;;;-3.37;82.66;95140.19;5153532;27;20201;-74
2022/01/17 05:05:20;;;;;;;29.02;12.80;;;;;;;-3.29;82.81;95147.81;5153893;27;20623;-76
2022/01/17 05:07:47;;;;;;;29.88;11.18;;;;;;;-3.34;82.60;95137.09;5153449;27;20197;-76
2022/01/17 05:10:17;;;;;;;27.08;12.38;;;;;;;-3.28;82.99;95135.38;5140009;27;20196;-75
2022/01/17 05:12:45;;;;;;;25.92;11.27;;;;;;;-3.23;82.78;95154.03;5153081;27;20222;-74
2022/01/17 05:15:24;;;;;;;24.90;10.88;;;;;;;-3.31;82.20;95141.13;5153306;27;20232;-76
2022/01/17 05:18:00;;;;;;;29.27;12.48;;;;;;;-3.24;82.79;95137.31;5153828;27;20308;-75
2022/01/17 05:20:27;;;;;;;34.25;13.95;;;;;;;-3.61;81.91;95136.69;5152719;27;20231;-76
2022/01/17 05:22:54;;;;;;;40.78;13.32;;;;;;;-3.51;83.23;95148.56;5152919;27;20219;-74
2022/01/17 05:25:23;;;;;;;39.42;15.30;;;;;;;-3.50;83.40;95155.47;5152065;27;20200;-75
2022/01/17 05:27:50;;;;;;;33.03;13.27;;;;;;;-3.68;83.00;95157.16;5151715;27;20228;-75
2022/01/17 05:30:20;;;;;;;26.85;12.13;;;;;;;-3.78;83.24;95164.81;5152397;27;20226;-75
2022/01/17 05:32:47;;;;;;;34.35;14.65;;;;;;;-3.68;83.90;95156.34;5151937;27;20252;-75
2022/01/17 05:35:15;;;;;;;32.03;14.43;;;;;;;-3.59;83.45;95147.88;5151721;27;20199;-76
2022/01/17 05:37:43;;;;;;;42.42;13.77;;;;;;;-3.32;83.31;95147.44;5152957;27;20220;-75
2022/01/17 05:40:13;;;;;;;29.73;13.52;;;;;;;-3.24;82.00;95144.47;5153228;27;20232;-74
2022/01/17 05:42:41;;;;;;;33.55;13.80;;;;;;;-3.31;81.38;95157.00;5139584;27;20203;-76
2022/01/17 05:45:10;;;;;;;30.83;12.05;;;;;;;-3.53;80.72;95163.84;5153449;27;20201;-75
2022/01/17 05:47:39;;;;;;;27.75;11.98;;;;;;;-3.48;81.82;95162.16;5152933;27;20235;-75
2022/01/17 05:50:09;;;;;;;37.78;13.60;;;;;;;-3.51;81.29;95157.31;5153133;27;20216;-76
2022/01/17 05:52:36;;;;;;;26.75;11.40;;;;;;;-3.55;81.22;95155.38;5152798;27;20263;-75
2022/01/17 05:55:05;;;;;;;31.75;13.82;;;;;;;-3.47;81.72;95152.38;5153150;27;20200;-75
2022/01/17 05:57:32;;;;;;;29.17;12.18;;;;;;;-3.39;81.54;95165.28;5152723;27;20201;-75
2022/01/17 06:00:01;;;;;;;30.80;11.95;;;;;;;-3.51;82.20;95162.59;5138783;27;20224;-75
2022/01/17 06:02:28;;;;;;;26.75;12.15;;;;;;;-3.51;81.93;95175.84;5152904;27;20235;-75
2022/01/17 06:04:55;;;;;;;39.13;13.90;;;;;;;-3.49;83.04;95181.72;5152443;27;20223;-75
2022/01/17 06:07:22;;;;;;;25.00;12.23;;;;;;;-3.50;82.01;95181.94;5147130;27;20203;-75
2022/01/17 06:09:49;;;;;;;27.05;10.38;;;;;;;-1.50;95.53;95175.13;5145359;27;20253;-79
2022/01/17 06:12:16;;;;;;;22.65;10.25;;;;;;;0.29;97.29;95168.66;5152606;27;20223;-79
2022/01/17 06:14:43;;;;;;;26.65;12.60;;;;;;;0.40;96.43;95148.28;5152012;27;20251;-80
2022/01/17 06:17:12;;;;;;;43.95;19.40;;;;;;;2.08;86.60;95151.84;5147328;27;20283;-75
2022/01/17 06:19:39;;;;;;;37.30;16.75;;;;;;;0.84;80.81;95156.94;5138899;27;20685;-76
2022/01/17 06:22:07;;;;;;;41.03;19.23;;;;;;;0.14;79.59;95152.50;5152328;27;20235;-75
2022/01/17 06:24:34;;;;;;;42.80;18.05;;;;;;;0.17;78.25;95154.66;5148119;27;20206;-76
2022/01/17 06:27:02;;;;;;;41.65;19.15;;;;;;;-0.19;74.45;95170.22;5141951;27;20224;-77
2022/01/17 06:29:30;;;;;;;38.10;15.85;;;;;;;0.23;74.96;95164.34;5151797;27;20214;-76
2022/01/17 06:31:57;;;;;;;34.70;13.98;;;;;;;0.17;71.76;95163.47;5154847;27;20554;-77
2022/01/17 06:34:25;;;;;;;30.80;14.82;;;;;;;0.77;71.09;95159.00;5155919;27;20673;-75
2022/01/17 06:36:52;;;;;;;34.92;14.25;;;;;;;0.84;69.41;95160.41;5156087;27;20640;-79
2022/01/17 06:39:21;;;;;;;32.47;15.45;;;;;;;0.60;68.56;95157.25;5156460;27;20256;-76
2022/01/17 06:41:47;;;;;;;32.70;14.70;;;;;;;0.75;69.65;95158.47;5156396;27;20224;-78
2022/01/17 06:44:14;;;;;;;46.08;15.40;;;;;;;0.27;69.24;95173.44;5155665;27;20257;-77
2022/01/17 06:46:41;;;;;;;30.73;14.65;;;;;;;-0.05;69.62;95168.00;5156646;27;20197;-76
2022/01/17 06:49:08;;;;;;;37.72;16.38;;;;;;;-0.98;72.30;95174.16;5155679;27;20216;-79
2022/01/17 06:51:40;;;;;;;42.33;17.48;;;;;;;-1.62;75.75;95166.41;5156160;27;20287;-77
2022/01/17 06:54:07;;;;;;;30.98;18.13;;;;;;;-1.57;75.75;95184.28;5142788;27;20193;-79
2022/01/17 06:56:33;;;;;;;43.08;19.02;;;;;;;-1.73;76.76;95175.25;5156420;27;20196;-80
2022/01/17 06:59:04;;;;;;;47.38;17.88;;;;;;;-1.78;77.09;95172.50;5156067;27;20205;-80
2022/01/17 07:01:31;;;;;;;36.50;15.50;;;;;;;-1.84;77.41;95184.06;5155667;27;20693;-78
2022/01/17 07:03:59;;;;;;;34.22;17.27;;;;;;;-1.73;77.81;95164.63;5155765;27;20205;-79
2022/01/17 07:06:29;;;;;;;40.83;16.48;;;;;;;-1.67;77.31;95166.34;5156042;27;20231;-78
2022/01/17 07:08:57;;;;;;;37.90;18.10;;;;;;;-1.45;77.06;95177.88;5155223;27;20549;-79
2022/01/17 07:11:26;;;;;;;29.48;15.63;;;;;;;-1.31;76.69;95178.38;5155728;27;20224;-75
2022/01/17 07:13:53;;;;;;;28.83;15.23;;;;;;;-1.18;76.57;95185.25;5155220;27;20710;-75
2022/01/17 07:16:20;;;;;;;31.83;13.75;;;;;;;-1.14;75.39;95183.72;5155536;27;20232;-75
2022/01/17 07:18:46;;;;;;;33.90;14.88;;;;;;;-1.01;74.61;95172.78;5154896;27;20196;-73
2022/01/17 07:21:13;;;;;;;32.03;12.65;;;;;;;-0.72;73.56;95184.13;5146122;27;20220;-77
2022/01/17 07:23:40;;;;;;;41.63;15.82;;;;;;;-0.56;73.43;95195.81;5155823;27;20200;-77
2022/01/17 07:26:10;;;;;;;39.25;13.02;;;;;;;-0.53;72.10;95211.25;5155149;27;20220;-79
2022/01/17 07:28:37;;;;;;;25.88;11.30;;;;;;;-0.65;70.57;95218.53;5148920;27;20204;-76
2022/01/17 07:31:04;;;;;;;31.08;12.77;;;;;;;-0.40;71.74;95214.38;5146463;27;20207;-75
2022/01/17 07:33:37;;;;;;;24.63;11.85;;;;;;;-0.18;70.26;95201.13;5154955;27;20701;-78
2022/01/17 07:36:05;;;;;;;28.65;12.05;;;;;;;-0.15;69.77;95203.31;5155254;27;20658;-76
2022/01/17 07:38:32;;;;;;;36.00;15.50;;;;;;;-0.05;70.19;95182.13;5154216;27;20203;-79
2022/01/17 07:40:59;;;;;;;30.67;11.75;;;;;;;0.06;69.56;95187.56;5147184;27;20224;-77
2022/01/17 07:43:27;;;;;;;27.58;11.95;;;;;;;0.16;70.17;95171.69;5149042;27;20200;-73
2022/01/17 07:46:04;;;;;;;31.27;12.65;;;;;;;0.34;69.14;95168.72;5154802;27;20200;-76
2022/01/17 07:48:56;;;;;;;37.75;12.90;;;;;;;0.60;69.60;95173.25;5154560;27;20235;-74
2022/01/17 07:51:22;;;;;;;29.95;13.70;;;;;;;0.62;66.92;95183.66;5154667;27;20291;-74
2022/01/17 07:53:50;;;;;;;30.80;13.52;;;;;;;0.90;68.01;95179.94;5154160;27;20682;-73
2022/01/17 07:56:17;;;;;;;44.60;12.77;;;;;;;0.95;66.23;95190.66;5154186;27;20204;-75
2022/01/17 07:58:45;;;;;;;37.17;11.98;;;;;;;0.86;65.84;95219.63;5148565;27;20197;-78
2022/01/17 08:01:12;;;;;;;28.75;11.80;;;;;;;1.08;65.52;95264.94;5147039;27;20232;-74
2022/01/17 08:03:39;;;;;;;26.67;12.13;;;;;;;1.36;65.76;95271.84;5154478;27;20205;-74
2022/01/17 08:06:06;;;;;;;25.75;10.85;;;;;;;1.47;63.98;95235.38;5154554;27;20212;-74
2022/01/17 08:08:33;;;;;;;24.77;11.23;;;;;;;1.62;64.91;95230.13;5153753;27;20203;-74
2022/01/17 08:11:00;;;;;;;12.60;6.05;;;;;;;2.05;63.30;95195.13;5153672;27;20196;-72
2022/01/17 08:13:27;;;;;;;12.85;6.32;;;;;;;2.60;62.60;95175.00;5154353;27;20224;-74
2022/01/17 08:15:55;;;;;;;6.57;3.65;;;;;;;3.12;59.66;95150.75;5153969;27;20648;-73
2022/01/17 08:18:22;;;;;;;8.40;3.50;;;;;;;3.31;59.32;95140.28;5154587;27;20208;-73
2022/01/17 08:20:49;;;;;;;4.82;2.10;;;;;;;3.50;57.53;95143.22;5153635;27;20232;-74
2022/01/17 08:23:16;;;;;;;4.57;2.03;;;;;;;3.52;57.50;95139.19;5151573;27;20253;-76
2022/01/17 08:25:43;;;;;;;5.57;2.83;;;;;;;3.54;57.16;95153.13;5144324;27;20315;-75
2022/01/17 08:28:13;;;;;;;6.35;2.80;;;;;;;3.65;56.69;95188.72;5144509;27;20598;-78
2022/01/17 08:30:42;;;;;;;6.85;2.50;;;;;;;3.83;55.91;95216.81;5149753;27;20546;-76
2022/01/17 08:33:13;;;;;;;8.40;2.88;;;;;;;3.87;55.93;95233.97;5141867;27;20196;-75
2022/01/17 08:35:39;;;;;;;4.07;2.58;;;;;;;4.08;55.93;95254.31;5153664;27;20204;-74
2022/01/17 08:38:06;;;;;;;4.43;2.22;;;;;;;4.18;54.12;95278.41;5142008;27;20197;-74
2022/01/17 08:40:33;;;;;;;5.57;3.55;;;;;;;4.09;54.52;95239.84;5146478;27;20615;-77
2022/01/17 08:43:00;;;;;;;9.70;1.88;;;;;;;4.15;54.53;95203.88;5142779;27;20203;-73
2022/01/17 08:45:29;;;;;;;5.30;2.70;;;;;;;4.36;52.13;95219.91;5154303;27;20370;-74
2022/01/17 08:47:56;;;;;;;5.03;1.75;;;;;;;4.46;51.90;95190.38;5140103;27;20761;-72
2022/01/17 08:50:24;;;;;;;4.00;2.13;;;;;;;4.53;50.52;95164.84;5150569;27;20218;-73
2022/01/17 08:52:51;;;;;;;7.15;3.13;;;;;;;4.70;50.34;95159.13;5153559;27;20288;-75
2022/01/17 08:55:18;;;;;;;7.28;3.08;;;;;;;4.77;50.65;95110.53;5152644;27;20704;-73
2022/01/17 08:57:45;;;;;;;4.90;2.33;;;;;;;4.85;50.36;95094.63;5151696;27;20199;-72
2022/01/17 09:00:16;;;;;;;7.80;3.97;;;;;;;4.95;49.99;95107.94;5137429;27;20204;-75
2022/01/17 09:02:43;;;;;;;4.30;1.60;;;;;;;5.00;49.88;95121.34;5153378;27;20235;-74
2022/01/17 09:05:10;;;;;;;8.85;3.38;;;;;;;5.00;50.22;95081.06;5153451;27;20224;-74
2022/01/17 09:07:38;;;;;;;8.63;2.42;;;;;;;5.04;50.05;95051.00;5141784;27;20663;-74
2022/01/17 09:10:07;;;;;;;5.65;2.33;;;;;;;4.97;50.35;95054.78;5151533;27;20207;-72
2022/01/17 09:12:35;;;;;;;7.05;3.28;;;;;;;4.87;50.87;95030.72;5151623;27;20220;-74
2022/01/17 09:15:02;;;;;;;2.90;1.50;;;;;;;4.98;50.53;95042.97;5152585;27;20706;-73
2022/01/17 09:17:29;;;;;;;2.53;1.50;;;;;;;5.16;50.33;95038.00;5150400;27;20185;-74
2022/01/17 09:19:56;;;;;;;4.85;2.45;;;;;;;5.28;49.58;95049.16;5139028;27;20223;-72
2022/01/17 09:22:23;;;;;;;6.10;2.13;;;;;;;5.33;49.01;95038.34;5152953;27;20456;-72
2022/01/17 09:24:52;;;;;;;4.00;2.60;;;;;;;5.23;48.98;95038.44;5152786;27;20636;-71
2022/01/17 09:27:19;;;;;;;4.00;2.67;;;;;;;5.29;49.32;95040.00;5144147;27;20231;-73
2022/01/17 09:29:46;;;;;;;10.88;4.03;;;;;;;5.16;49.57;95043.34;5152884;27;20204;-74
2022/01/17 09:32:14;;;;;;;7.03;3.47;;;;;;;5.22;50.09;95069.06;5152864;27;20207;-74
2022/01/17 09:34:42;;;;;;;8.57;4.05;;;;;;;5.19;49.55;95048.97;5139092;27;20229;-72
2022/01/17 09:37:09;;;;;;;3.72;2.80;;;;;;;5.05;49.55;95048.03;5149878;27;20709;-72
2022/01/17 09:39:37;;;;;;;7.90;3.22;;;;;;;5.14;50.28;95075.88;5140235;27;20232;-72
2022/01/17 09:42:06;;;;;;;4.68;2.38;;;;;;;4.87;50.74;95073.66;5152653;27;20236;-71
2022/01/17 09:44:33;;;;;;;7.97;2.45;;;;;;;5.10;50.53;95082.88;5151633;27;20204;-73
2022/01/17 09:47:00;;;;;;;3.40;1.83;;;;;;;5.10;50.99;95068.63;5148749;27;20220;-74
2022/01/17 09:49:34;;;;;;;3.35;2.47;;;;;;;5.20;50.48;95068.53;5152104;27;20217;-74
2022/01/17 09:52:08;;;;;;;9.07;2.20;;;;;;;5.24;50.91;95061.53;5152578;27;20237;-73
2022/01/17 09:54:38;;;;;;;6.00;2.85;;;;;;;5.24;51.01;95075.75;5152206;27;20220;-77
2022/01/17 09:57:08;;;;;;;5.13;2.47;;;;;;;5.34;50.95;95061.44;5146548;27;20245;-74
2022/01/17 09:59:37;;;;;;;6.90;3.70;;;;;;;5.05;54.00;95074.06;5131602;27;20640;-73
2022/01/17 10:02:05;;;;;;;8.75;4.68;;;;;;;4.86;55.48;95082.00;5151290;27;20456;-74
2022/01/17 10:04:34;;;;;;;7.47;3.97;;;;;;;4.60;57.55;95076.81;5152598;27;20579;-74
2022/01/17 10:07:01;;;;;;;12.05;6.20;;;;;;;4.36;58.79;95078.59;5138582;27;20204;-75
2022/01/17 10:09:29;;;;;;;10.18;4.57;;;;;;;4.52;59.18;95087.31;5138595;27;20193;-74
2022/01/17 10:12:16;;;;;;;8.98;5.53;;;;;;;4.11;60.64;95103.63;5152065;27;20235;-73
2022/01/17 10:14:45;;;;;;;9.20;4.97;;;;;;;3.99;61.92;95095.09;5151776;27;20235;-74
2022/01/17 10:17:16;;;;;;;8.77;3.88;;;;;;;3.97;62.22;95097.25;5149760;27;20195;-75
2022/01/17 10:19:44;;;;;;;6.95;3.70;;;;;;;3.64;63.43;95108.63;5137436;27;20744;-73
2022/01/17 10:22:16;;;;;;;5.82;3.42;;;;;;;3.72;63.51;95094.66;5152624;27;20220;-75
2022/01/17 10:24:54;;;;;;;6.32;3.80;;;;;;;3.55;64.41;95079.72;5152127;27;20188;-73
2022/01/17 10:30:31;;;;;;;10.07;3.40;;;;;;;3.77;64.00;95082.06;5151474;27;20192;-76
2022/01/17 10:35:56;;;;;;;7.13;3.38;;;;;;;3.71;63.72;95071.63;5152172;27;20231;-75
2022/01/17 10:38:27;;;;;;;8.88;4.45;;;;;;;3.55;63.44;95052.94;5144873;27;20200;-75
2022/01/17 10:40:57;;;;;;;6.80;3.55;;;;;;;3.56;63.85;95054.53;5139293;27;20585;-76
2022/01/17 10:43:34;;;;;;;5.63;3.63;;;;;;;3.58;63.79;95063.09;5151260;27;20239;-78
2022/01/17 10:46:03;;;;;;;7.97;3.72;;;;;;;3.56;63.95;95062.56;5148706;27;20227;-74
2022/01/17 10:48:36;;;;;;;7.10;3.53;;;;;;;3.48;63.86;95057.78;5146739;27;20212;-72
2022/01/17 10:51:05;;;;;;;5.68;3.10;;;;;;;3.39;64.46;95048.72;5151537;27;20235;-73
2022/01/17 10:53:32;;;;;;;7.65;4.22;;;;;;;3.67;64.40;95044.59;5151810;27;20570;-73
2022/01/17 10:56:05;;;;;;;8.60;3.80;;;;;;;3.89;63.61;95037.00;5151374;27;20196;-74
2022/01/17 10:58:35;;;;;;;3.97;2.63;;;;;;;4.03;62.90;95045.25;5149085;27;20378;-76
2022/01/17 11:01:05;;;;;;;7.90;3.65;;;;;;;4.17;62.33;95053.47;5151488;27;20642;-77
2022/01/17 11:03:35;;;;;;;4.53;2.63;;;;;;;4.33;61.87;95036.22;5152113;27;20232;-74
2022/01/17 11:06:05;;;;;;;8.88;4.47;;;;;;;4.41;61.00;95048.22;5151721;27;20204;-74
2022/01/17 11:08:34;;;;;;;15.60;4.50;;;;;;;4.55;59.83;95043.84;5138969;27;20231;-72
2022/01/17 11:11:03;;;;;;;5.72;3.67;;;;;;;4.53;58.99;95048.69;5151764;27;20286;-75
2022/01/17 11:13:34;;;;;;;7.20;3.00;;;;;;;4.53;58.94;95036.06;5151889;27;20224;-73
2022/01/17 11:16:07;;;;;;;8.52;3.75;;;;;;;4.81;58.22;95039.88;5150636;27;20617;-72
2022/01/17 11:18:36;;;;;;;4.03;2.58;;;;;;;4.81;58.33;95049.81;5143100;27;20216;-74
2022/01/17 11:21:10;;;;;;;4.75;3.17;;;;;;;4.87;57.93;95035.28;5149918;27;20213;-76
2022/01/17 11:23:37;;;;;;;5.88;3.00;;;;;;;5.03;57.59;95027.91;5155586;27;20609;-75
2022/01/17 11:26:06;;;;;;;3.97;2.30;;;;;;;5.28;56.30;95020.41;5154871;27;20702;-73
2022/01/17 11:28:36;;;;;;;7.93;2.53;;;;;;;5.16;55.49;95005.78;5146857;27;20263;-77
2022/01/17 11:31:05;;;;;;;4.00;2.35;;;;;;;5.05;56.03;95015.00;5154883;27;20200;-75
2022/01/17 11:33:33;;;;;;;5.32;2.28;;;;;;;5.26;55.93;95011.03;5155461;27;20208;-75
2022/01/17 11:36:00;;;;;;;3.47;1.92;;;;;;;5.46;54.99;95010.03;5155239;27;20223;-76
2022/01/17 11:38:30;;;;;;;4.40;2.70;;;;;;;5.35;55.22;95014.69;5148682;27;20196;-77
2022/01/17 11:40:59;;;;;;;4.68;2.33;;;;;;;5.08;55.99;95011.72;5154803;27;20192;-75
2022/01/17 11:43:33;;;;;;;3.58;2.20;;;;;;;5.04;55.47;95013.41;5154607;27;20631;-75
2022/01/17 11:46:03;;;;;;;4.38;2.88;;;;;;;5.13;55.93;95011.69;5155034;27;20227;-77
2022/01/17 11:48:32;;;;;;;6.40;3.55;;;;;;;5.27;55.93;95013.44;5138403;27;20260;-73